AirNav   Everest Fuels
 
 424 users online  

NH94 Spring Creek Heliport
Milford, New Hampshire, USA

GOING TO MILFORD?


FAA INFORMATION EFFECTIVE 26 MARCH 2020

Location

FAA Identifier: NH94
Lat/Long: 42-48-28.0000N 071-41-09.0000W
42-48.466667N 071-41.150000W
42.8077778,-71.6858333
(estimated)
Elevation: 400 ft. / 122 m (estimated)
From city: 8 miles SW of MILFORD, NH
Time zone: UTC -4 (UTC -5 during Standard Time)
Zip code: 03055

Heliport Operations

Heliport use: Private use. Permission required prior to landing
Activation date: 11/2005
Control tower: no
ARTCC: BOSTON CENTER
FSS: BANGOR FLIGHT SERVICE STATION
Attendance: UNATNDD
Segmented circle: no

Heliport Communications

WX AWOS-3PT at ASH (8 nm E): 125.1 (603-578-0473)
WX ASOS at MHT (13 nm NE): 119.55 (603-621-1766)
WX ASOS at AFN (14 nm W): 135.875 (603-532-6195)
WX ASOS at FIT (16 nm S): 135.175 (978-343-9121)

Nearby radio navigation aids

VOR radial/distance  VOR name  Freq  Var
MHTr270/14.4MANCHESTER VOR/DME114.4015W
GDMr060/22.7GARDNER VOR/DME110.6014W
CONr206/25.2CONCORD VOR/DME112.9015W
LWMr294/26.3LAWRENCE VOR/DME112.5015W
EENr102/26.7KEENE VORTAC109.4014W

 
NDB name  Hdg/Dist  Freq  Var  ID
FITZY259/7.720915WMJ -- .---

Heliport Services

Runway Information

Helipad H1

Dimensions: 60 x 60 ft. / 18 x 18 m
Surface: asphalt
Traffic pattern: leftleft

Heliport Ownership and Management from official FAA records

Ownership: Privately-owned
Owner: PAUL K. AMATO
462 MASON ROAD
MILFORD, NH 03055
Phone 603-673-3504
Manager: PAUL K. AMATO
462 MASON ROAD
MILFORD, NH 03055
Phone 603-673-3504

Heliport Operational Statistics

Aircraft based on the field: 1
Helicopters: 1
    

Additional Remarks

FOR CD CTC BOSTON APCH AT 603-594-5551.

Instrument Procedures

There are no published instrument procedures at NH94.

Some nearby airports with instrument procedures:

KASH - Boire Field Airport (8 nm E)
KMHT - Manchester Airport (13 nm NE)
KAFN - Jaffrey Airport-Silver Ranch (14 nm W)
KFIT - Fitchburg Municipal Airport (16 nm S)
KGDM - Gardner Municipal Airport (21 nm SW)
 
Loc | Ops | Rwys | IFR | FBO | Links
Com | Nav | Svcs | Stats | Notes
Area around NH94 (Spring Creek Heliport)
 
Road maps at: MapQuest Bing Google
 
Aerial photo
No photo
 
Sectional chart

 
Airport distance calculator
Flying to Spring Creek Heliport? Find the distance to fly.

From to NH94

Sunrise and sunset
Times for 03-Apr-2020
 Local
(UTC-4)
 Zulu
(UTC)
Morning civil twilight05:5609:56
Sunrise06:2510:25
Sunset19:1523:15
Evening civil twilight19:4423:44

Current date and time
Zulu (UTC)  03-Apr-2020 10:50:24
Local (UTC-4)  03-Apr-2020 06:50:24
 
METAR
KASH 
8nm E 
031042Z 33011KT 4SM RA BR BKN008 OVC015 06/06 A2955 RMK AO2 CIG 006V012 PNO $
KMHT 
13nm NE 
030953Z 34012KT 7SM -RA SCT009 OVC019 06/05 A2952 RMK AO2 SLP011 P0006 T00610050
KAFN 
14nm W 
031011Z AUTO VRB03KT 4SM RA BR OVC013 04/04 A2954 RMK AO2 P0003 T00440044 $
KFIT 
16nm S 
030815Z AUTO 33012G20KT 5SM -RA BR OVC027 06/04 A2950 RMK AO2 P0004 T00610039
TAF
KMHT 
13nm NE 
030912Z 0309/0406 34013G21KT 6SM -RA BR SCT008 OVC015 FM031400 02015G32KT 5SM RA BR OVC010 FM031900 03015G28KT 6SM -SHRA BR OVC015 FM040000 01012G20KT P6SM SCT025 OVC050
NOTAMs
Click for the latest NOTAMs
NOTAMs are issued by the DoD/FAA and will open in a separate window not controlled by AirNav.

 

 
 

Would you like to see your business listed on this page?

 If your business provides an interesting product or service to pilots, flight crews, aircraft, or users of the Spring Creek Heliport, you should consider listing it here.  To start the listing process, click on the button below
 
Add a business
 

Other Pages about Spring Creek Heliport

Update a link
 
Copyright © AirNav, LLC. All rights reserved. Privacy Policy  Contact